sensor_id;sensor_type;location;lat;lon;timestamp;temperature;humidity
3648;DHT22;1840;48.892;15.312;2023-11-18T00:00:55;0.70;96.60
3648;DHT22;1840;48.892;15.312;2023-11-18T00:03:25;0.60;96.30
3648;DHT22;1840;48.892;15.312;2023-11-18T00:05:53;0.70;96.40
3648;DHT22;1840;48.892;15.312;2023-11-18T00:08:22;0.50;96.70
3648;DHT22;1840;48.892;15.312;2023-11-18T00:10:51;0.60;96.70
3648;DHT22;1840;48.892;15.312;2023-11-18T00:13:20;0.60;96.50
3648;DHT22;1840;48.892;15.312;2023-11-18T00:15:49;0.50;96.60
3648;DHT22;1840;48.892;15.312;2023-11-18T00:18:17;0.50;96.50
3648;DHT22;1840;48.892;15.312;2023-11-18T00:20:45;0.50;96.60
3648;DHT22;1840;48.892;15.312;2023-11-18T00:23:13;0.50;96.80
3648;DHT22;1840;48.892;15.312;2023-11-18T00:25:45;0.40;96.40
3648;DHT22;1840;48.892;15.312;2023-11-18T00:28:13;0.50;96.50
3648;DHT22;1840;48.892;15.312;2023-11-18T00:30:41;0.60;96.50
3648;DHT22;1840;48.892;15.312;2023-11-18T00:33:09;0.60;96.40
3648;DHT22;1840;48.892;15.312;2023-11-18T00:35:37;0.40;96.70
3648;DHT22;1840;48.892;15.312;2023-11-18T00:38:05;0.30;96.60
3648;DHT22;1840;48.892;15.312;2023-11-18T00:40:33;0.40;96.70
3648;DHT22;1840;48.892;15.312;2023-11-18T00:43:03;0.40;96.50
3648;DHT22;1840;48.892;15.312;2023-11-18T00:45:31;0.40;96.50
3648;DHT22;1840;48.892;15.312;2023-11-18T00:47:59;0.30;97.00
3648;DHT22;1840;48.892;15.312;2023-11-18T00:50:27;0.40;96.60
3648;DHT22;1840;48.892;15.312;2023-11-18T00:52:56;0.30;96.80
3648;DHT22;1840;48.892;15.312;2023-11-18T00:55:24;0.30;97.00
3648;DHT22;1840;48.892;15.312;2023-11-18T00:57:52;0.40;96.80
3648;DHT22;1840;48.892;15.312;2023-11-18T01:00:22;0.30;97.00
3648;DHT22;1840;48.892;15.312;2023-11-18T01:02:50;0.30;96.90
3648;DHT22;1840;48.892;15.312;2023-11-18T01:05:18;0.30;97.00
3648;DHT22;1840;48.892;15.312;2023-11-18T01:07:46;0.30;96.90
3648;DHT22;1840;48.892;15.312;2023-11-18T01:10:15;0.50;96.70
3648;DHT22;1840;48.892;15.312;2023-11-18T01:12:43;0.30;96.90
3648;DHT22;1840;48.892;15.312;2023-11-18T01:15:12;0.30;97.10
3648;DHT22;1840;48.892;15.312;2023-11-18T01:17:42;0.30;97.20
3648;DHT22;1840;48.892;15.312;2023-11-18T01:20:11;0.40;96.80
3648;DHT22;1840;48.892;15.312;2023-11-18T01:22:40;0.70;96.70
3648;DHT22;1840;48.892;15.312;2023-11-18T01:25:10;0.60;96.70
3648;DHT22;1840;48.892;15.312;2023-11-18T01:27:38;0.60;96.80
3648;DHT22;1840;48.892;15.312;2023-11-18T01:30:07;0.50;96.70
3648;DHT22;1840;48.892;15.312;2023-11-18T01:32:36;0.40;96.80
3648;DHT22;1840;48.892;15.312;2023-11-18T01:35:08;0.40;96.80
3648;DHT22;1840;48.892;15.312;2023-11-18T01:37:39;0.40;96.90
3648;DHT22;1840;48.892;15.312;2023-11-18T01:40:08;0.40;96.80
3648;DHT22;1840;48.892;15.312;2023-11-18T01:42:41;0.50;96.70
3648;DHT22;1840;48.892;15.312;2023-11-18T01:45:10;0.50;96.70
3648;DHT22;1840;48.892;15.312;2023-11-18T01:47:39;0.50;96.80
3648;DHT22;1840;48.892;15.312;2023-11-18T01:50:10;0.40;96.80
3648;DHT22;1840;48.892;15.312;2023-11-18T01:52:40;0.50;96.70
3648;DHT22;1840;48.892;15.312;2023-11-18T01:55:12;0.60;96.70
3648;DHT22;1840;48.892;15.312;2023-11-18T01:57:41;0.60;96.50
3648;DHT22;1840;48.892;15.312;2023-11-18T02:00:12;0.50;96.60
3648;DHT22;1840;48.892;15.312;2023-11-18T02:02:44;0.70;96.50
3648;DHT22;1840;48.892;15.312;2023-11-18T02:05:14;0.60;96.10
3648;DHT22;1840;48.892;15.312;2023-11-18T02:07:44;0.50;96.40
3648;DHT22;1840;48.892;15.312;2023-11-18T02:10:13;0.60;96.40
3648;DHT22;1840;48.892;15.312;2023-11-18T02:12:46;0.70;96.30
3648;DHT22;1840;48.892;15.312;2023-11-18T02:15:21;0.60;96.40
3648;DHT22;1840;48.892;15.312;2023-11-18T02:17:50;0.70;96.50
3648;DHT22;1840;48.892;15.312;2023-11-18T02:20:22;0.70;96.30
3648;DHT22;1840;48.892;15.312;2023-11-18T02:22:51;0.70;96.40
3648;DHT22;1840;48.892;15.312;2023-11-18T02:25:21;0.70;96.60
3648;DHT22;1840;48.892;15.312;2023-11-18T02:27:55;0.70;96.50
3648;DHT22;1840;48.892;15.312;2023-11-18T02:30:23;0.70;96.50
3648;DHT22;1840;48.892;15.312;2023-11-18T02:32:54;0.60;96.40
3648;DHT22;1840;48.892;15.312;2023-11-18T02:35:29;0.40;96.50
3648;DHT22;1840;48.892;15.312;2023-11-18T02:37:59;0.60;96.60
3648;DHT22;1840;48.892;15.312;2023-11-18T02:40:32;0.70;96.30
3648;DHT22;1840;48.892;15.312;2023-11-18T02:43:03;0.70;96.40
3648;DHT22;1840;48.892;15.312;2023-11-18T02:45:34;0.80;96.50
3648;DHT22;1840;48.892;15.312;2023-11-18T02:48:03;0.90;96.20
3648;DHT22;1840;48.892;15.312;2023-11-18T02:50:34;0.80;96.50
3648;DHT22;1840;48.892;15.312;2023-11-18T02:53:03;0.80;96.00
3648;DHT22;1840;48.892;15.312;2023-11-18T02:55:32;0.80;96.40
3648;DHT22;1840;48.892;15.312;2023-11-18T02:58:01;0.70;96.30
3648;DHT22;1840;48.892;15.312;2023-11-18T03:00:33;0.80;96.60
3648;DHT22;1840;48.892;15.312;2023-11-18T03:03:01;1.00;96.20
3648;DHT22;1840;48.892;15.312;2023-11-18T03:05:30;1.00;96.10
3648;DHT22;1840;48.892;15.312;2023-11-18T03:07:58;1.10;96.20
3648;DHT22;1840;48.892;15.312;2023-11-18T03:10:26;1.20;96.00
3648;DHT22;1840;48.892;15.312;2023-11-18T03:12:57;1.10;96.10
3648;DHT22;1840;48.892;15.312;2023-11-18T03:15:26;1.00;96.00
3648;DHT22;1840;48.892;15.312;2023-11-18T03:17:55;0.80;96.30
3648;DHT22;1840;48.892;15.312;2023-11-18T03:20:23;1.00;96.50
3648;DHT22;1840;48.892;15.312;2023-11-18T03:22:53;1.10;96.30
3648;DHT22;1840;48.892;15.312;2023-11-18T03:25:21;1.00;96.30
3648;DHT22;1840;48.892;15.312;2023-11-18T03:27:49;1.10;96.20
3648;DHT22;1840;48.892;15.312;2023-11-18T03:30:17;1.10;96.20
3648;DHT22;1840;48.892;15.312;2023-11-18T03:32:47;1.10;96.10
3648;DHT22;1840;48.892;15.312;2023-11-18T03:35:15;1.10;96.30
3648;DHT22;1840;48.892;15.312;2023-11-18T03:37:43;0.90;96.30
3648;DHT22;1840;48.892;15.312;2023-11-18T03:40:12;0.80;96.60
3648;DHT22;1840;48.892;15.312;2023-11-18T03:42:41;1.00;96.30
3648;DHT22;1840;48.892;15.312;2023-11-18T03:45:10;0.90;96.30
3648;DHT22;1840;48.892;15.312;2023-11-18T03:47:38;0.90;96.40
3648;DHT22;1840;48.892;15.312;2023-11-18T03:50:08;1.00;96.40
3648;DHT22;1840;48.892;15.312;2023-11-18T03:52:37;1.10;96.40
3648;DHT22;1840;48.892;15.312;2023-11-18T03:55:06;1.10;96.20
3648;DHT22;1840;48.892;15.312;2023-11-18T03:57:34;1.10;96.00
3648;DHT22;1840;48.892;15.312;2023-11-18T04:00:03;1.10;96.50
3648;DHT22;1840;48.892;15.312;2023-11-18T04:02:31;1.00;96.40
3648;DHT22;1840;48.892;15.312;2023-11-18T04:05:01;1.00;96.30
3648;DHT22;1840;48.892;15.312;2023-11-18T04:07:31;1.20;96.20
3648;DHT22;1840;48.892;15.312;2023-11-18T04:09:59;1.20;96.20
3648;DHT22;1840;48.892;15.312;2023-11-18T04:12:28;1.20;96.10
3648;DHT22;1840;48.892;15.312;2023-11-18T04:14:57;1.00;96.20
3648;DHT22;1840;48.892;15.312;2023-11-18T04:17:25;1.00;96.40
3648;DHT22;1840;48.892;15.312;2023-11-18T04:19:55;0.70;96.60
3648;DHT22;1840;48.892;15.312;2023-11-18T04:22:23;0.80;96.60
3648;DHT22;1840;48.892;15.312;2023-11-18T04:24:53;0.70;96.70
3648;DHT22;1840;48.892;15.312;2023-11-18T04:27:22;0.70;96.70
3648;DHT22;1840;48.892;15.312;2023-11-18T04:29:50;0.80;96.60
3648;DHT22;1840;48.892;15.312;2023-11-18T04:32:18;0.80;96.70
3648;DHT22;1840;48.892;15.312;2023-11-18T04:34:46;0.90;96.60
3648;DHT22;1840;48.892;15.312;2023-11-18T04:37:16;0.90;96.70
3648;DHT22;1840;48.892;15.312;2023-11-18T04:39:44;0.90;96.50
3648;DHT22;1840;48.892;15.312;2023-11-18T04:42:14;0.70;96.50
3648;DHT22;1840;48.892;15.312;2023-11-18T04:44:43;0.80;96.70
3648;DHT22;1840;48.892;15.312;2023-11-18T04:47:11;0.80;96.60
3648;DHT22;1840;48.892;15.312;2023-11-18T04:49:39;0.80;96.70
3648;DHT22;1840;48.892;15.312;2023-11-18T04:52:08;0.60;96.80
3648;DHT22;1840;48.892;15.312;2023-11-18T04:54:36;0.70;96.80
3648;DHT22;1840;48.892;15.312;2023-11-18T04:57:04;0.70;97.10
3648;DHT22;1840;48.892;15.312;2023-11-18T04:59:37;0.90;96.70
3648;DHT22;1840;48.892;15.312;2023-11-18T05:02:05;0.80;96.70
3648;DHT22;1840;48.892;15.312;2023-11-18T05:04:33;0.70;96.70
3648;DHT22;1840;48.892;15.312;2023-11-18T05:07:03;0.80;96.70
3648;DHT22;1840;48.892;15.312;2023-11-18T05:09:33;0.60;96.70
3648;DHT22;1840;48.892;15.312;2023-11-18T05:12:02;0.60;96.80
3648;DHT22;1840;48.892;15.312;2023-11-18T05:14:30;0.60;96.90
3648;DHT22;1840;48.892;15.312;2023-11-18T05:17:01;0.60;97.00
3648;DHT22;1840;48.892;15.312;2023-11-18T05:19:31;0.60;96.90
3648;DHT22;1840;48.892;15.312;2023-11-18T05:21:59;0.50;97.10
3648;DHT22;1840;48.892;15.312;2023-11-18T05:24:27;0.50;97.30
3648;DHT22;1840;48.892;15.312;2023-11-18T05:26:56;0.70;97.00
3648;DHT22;1840;48.892;15.312;2023-11-18T05:29:24;0.60;97.00
3648;DHT22;1840;48.892;15.312;2023-11-18T05:31:52;0.70;97.00
3648;DHT22;1840;48.892;15.312;2023-11-18T05:34:23;0.60;96.90
3648;DHT22;1840;48.892;15.312;2023-11-18T05:36:51;0.60;97.10
3648;DHT22;1840;48.892;15.312;2023-11-18T05:39:21;0.70;97.00
3648;DHT22;1840;48.892;15.312;2023-11-18T05:41:51;0.60;96.90
3648;DHT22;1840;48.892;15.312;2023-11-18T05:44:19;0.50;97.20
3648;DHT22;1840;48.892;15.312;2023-11-18T05:46:56;0.50;97.00
3648;DHT22;1840;48.892;15.312;2023-11-18T05:49:26;0.60;97.10
3648;DHT22;1840;48.892;15.312;2023-11-18T05:51:54;0.60;97.10
3648;DHT22;1840;48.892;15.312;2023-11-18T05:54:23;0.70;97.00
3648;DHT22;1840;48.892;15.312;2023-11-18T05:56:52;0.80;96.80
3648;DHT22;1840;48.892;15.312;2023-11-18T05:59:23;0.70;96.70
3648;DHT22;1840;48.892;15.312;2023-11-18T06:01:51;0.60;97.10
3648;DHT22;1840;48.892;15.312;2023-11-18T06:04:19;0.60;97.00
3648;DHT22;1840;48.892;15.312;2023-11-18T06:06:49;0.80;97.00
3648;DHT22;1840;48.892;15.312;2023-11-18T06:09:17;0.80;97.20
3648;DHT22;1840;48.892;15.312;2023-11-18T06:11:48;0.70;96.80
3648;DHT22;1840;48.892;15.312;2023-11-18T06:14:17;0.70;96.80
3648;DHT22;1840;48.892;15.312;2023-11-18T06:16:47;0.70;97.20
3648;DHT22;1840;48.892;15.312;2023-11-18T06:19:17;0.70;97.20
3648;DHT22;1840;48.892;15.312;2023-11-18T06:21:45;0.70;96.90
3648;DHT22;1840;48.892;15.312;2023-11-18T06:24:15;0.80;97.00
3648;DHT22;1840;48.892;15.312;2023-11-18T06:26:45;0.70;97.30
3648;DHT22;1840;48.892;15.312;2023-11-18T06:29:13;0.70;97.10
3648;DHT22;1840;48.892;15.312;2023-11-18T06:31:42;0.80;96.90
3648;DHT22;1840;48.892;15.312;2023-11-18T06:34:10;0.70;97.30
3648;DHT22;1840;48.892;15.312;2023-11-18T06:36:39;0.70;97.10
3648;DHT22;1840;48.892;15.312;2023-11-18T06:39:07;0.80;96.90
3648;DHT22;1840;48.892;15.312;2023-11-18T06:41:37;0.80;97.20
3648;DHT22;1840;48.892;15.312;2023-11-18T06:44:16;0.70;97.00
3648;DHT22;1840;48.892;15.312;2023-11-18T06:46:50;0.90;97.10
3648;DHT22;1840;48.892;15.312;2023-11-18T06:49:18;1.00;96.80
3648;DHT22;1840;48.892;15.312;2023-11-18T06:51:46;0.90;96.70
3648;DHT22;1840;48.892;15.312;2023-11-18T06:54:15;1.00;96.90
3648;DHT22;1840;48.892;15.312;2023-11-18T06:56:44;1.00;96.90
3648;DHT22;1840;48.892;15.312;2023-11-18T06:59:13;1.20;96.80
3648;DHT22;1840;48.892;15.312;2023-11-18T07:01:43;1.10;96.60
3648;DHT22;1840;48.892;15.312;2023-11-18T07:04:13;1.10;96.70
3648;DHT22;1840;48.892;15.312;2023-11-18T07:06:42;1.20;96.80
3648;DHT22;1840;48.892;15.312;2023-11-18T07:09:12;1.10;96.80
3648;DHT22;1840;48.892;15.312;2023-11-18T07:11:45;1.10;96.80
3648;DHT22;1840;48.892;15.312;2023-11-18T07:14:15;1.00;97.00
3648;DHT22;1840;48.892;15.312;2023-11-18T07:16:44;1.00;96.90
3648;DHT22;1840;48.892;15.312;2023-11-18T07:19:12;1.10;96.90
3648;DHT22;1840;48.892;15.312;2023-11-18T07:21:48;1.10;97.00
3648;DHT22;1840;48.892;15.312;2023-11-18T07:24:16;1.10;96.80
3648;DHT22;1840;48.892;15.312;2023-11-18T07:26:48;1.20;97.00
3648;DHT22;1840;48.892;15.312;2023-11-18T07:29:18;1.20;96.70
3648;DHT22;1840;48.892;15.312;2023-11-18T07:31:47;1.20;96.70
3648;DHT22;1840;48.892;15.312;2023-11-18T07:34:16;1.20;96.70
3648;DHT22;1840;48.892;15.312;2023-11-18T07:36:44;1.00;96.90
3648;DHT22;1840;48.892;15.312;2023-11-18T07:39:14;1.20;97.10
3648;DHT22;1840;48.892;15.312;2023-11-18T07:41:48;1.10;97.10
3648;DHT22;1840;48.892;15.312;2023-11-18T07:44:16;1.20;97.20
3648;DHT22;1840;48.892;15.312;2023-11-18T07:46:44;1.20;97.10
3648;DHT22;1840;48.892;15.312;2023-11-18T07:49:12;1.20;97.30
3648;DHT22;1840;48.892;15.312;2023-11-18T07:51:41;1.30;97.10
3648;DHT22;1840;48.892;15.312;2023-11-18T07:54:10;1.20;97.20
3648;DHT22;1840;48.892;15.312;2023-11-18T07:56:40;1.20;97.30
3648;DHT22;1840;48.892;15.312;2023-11-18T07:59:10;1.30;97.00
3648;DHT22;1840;48.892;15.312;2023-11-18T08:01:43;1.50;97.10
3648;DHT22;1840;48.892;15.312;2023-11-18T08:04:13;1.50;96.90
3648;DHT22;1840;48.892;15.312;2023-11-18T08:06:41;1.40;96.60
3648;DHT22;1840;48.892;15.312;2023-11-18T08:09:10;1.50;96.80
3648;DHT22;1840;48.892;15.312;2023-11-18T08:11:40;1.60;96.30
3648;DHT22;1840;48.892;15.312;2023-11-18T08:14:10;1.60;96.40
3648;DHT22;1840;48.892;15.312;2023-11-18T08:16:38;1.50;96.50
3648;DHT22;1840;48.892;15.312;2023-11-18T08:19:06;1.50;96.30
3648;DHT22;1840;48.892;15.312;2023-11-18T08:21:34;1.40;96.50
3648;DHT22;1840;48.892;15.312;2023-11-18T08:24:06;1.40;96.70
3648;DHT22;1840;48.892;15.312;2023-11-18T08:26:35;1.50;96.50
3648;DHT22;1840;48.892;15.312;2023-11-18T08:29:03;1.50;96.30
3648;DHT22;1840;48.892;15.312;2023-11-18T08:31:33;1.40;96.20
3648;DHT22;1840;48.892;15.312;2023-11-18T08:34:01;1.40;96.50
3648;DHT22;1840;48.892;15.312;2023-11-18T08:36:31;1.50;96.50
3648;DHT22;1840;48.892;15.312;2023-11-18T08:39:02;1.50;96.30
3648;DHT22;1840;48.892;15.312;2023-11-18T08:41:31;1.50;96.40
3648;DHT22;1840;48.892;15.312;2023-11-18T08:43:59;1.50;96.40
3648;DHT22;1840;48.892;15.312;2023-11-18T08:46:49;1.40;96.50
3648;DHT22;1840;48.892;15.312;2023-11-18T08:49:19;1.60;96.30
3648;DHT22;1840;48.892;15.312;2023-11-18T08:51:49;1.80;96.20
3648;DHT22;1840;48.892;15.312;2023-11-18T08:54:24;1.70;96.00
3648;DHT22;1840;48.892;15.312;2023-11-18T08:57:04;1.80;95.90
3648;DHT22;1840;48.892;15.312;2023-11-18T08:59:46;1.80;96.10
3648;DHT22;1840;48.892;15.312;2023-11-18T09:02:17;2.00;96.00
3648;DHT22;1840;48.892;15.312;2023-11-18T09:04:50;1.90;96.00
3648;DHT22;1840;48.892;15.312;2023-11-18T09:07:19;1.90;96.00
3648;DHT22;1840;48.892;15.312;2023-11-18T09:09:48;2.00;95.80
3648;DHT22;1840;48.892;15.312;2023-11-18T09:12:19;1.90;95.80
3648;DHT22;1840;48.892;15.312;2023-11-18T09:14:47;1.90;95.80
3648;DHT22;1840;48.892;15.312;2023-11-18T09:17:20;1.50;96.10
3648;DHT22;1840;48.892;15.312;2023-11-18T09:19:49;1.60;96.20
3648;DHT22;1840;48.892;15.312;2023-11-18T09:22:19;1.80;96.20
3648;DHT22;1840;48.892;15.312;2023-11-18T09:24:47;1.90;96.00
3648;DHT22;1840;48.892;15.312;2023-11-18T09:27:16;1.80;96.00
3648;DHT22;1840;48.892;15.312;2023-11-18T09:29:44;1.90;96.00
3648;DHT22;1840;48.892;15.312;2023-11-18T09:32:12;2.00;95.80
3648;DHT22;1840;48.892;15.312;2023-11-18T09:34:43;1.90;95.90
3648;DHT22;1840;48.892;15.312;2023-11-18T09:37:11;1.80;95.90
3648;DHT22;1840;48.892;15.312;2023-11-18T09:39:39;1.80;95.90
3648;DHT22;1840;48.892;15.312;2023-11-18T09:42:12;1.80;96.00
3648;DHT22;1840;48.892;15.312;2023-11-18T09:44:47;1.80;96.40
3648;DHT22;1840;48.892;15.312;2023-11-18T09:47:17;2.00;96.00
3648;DHT22;1840;48.892;15.312;2023-11-18T09:49:56;2.00;96.00
3648;DHT22;1840;48.892;15.312;2023-11-18T09:52:26;1.80;96.00
3648;DHT22;1840;48.892;15.312;2023-11-18T09:55:02;1.70;96.00
3648;DHT22;1840;48.892;15.312;2023-11-18T09:57:32;1.70;96.20
3648;DHT22;1840;48.892;15.312;2023-11-18T10:00:05;1.80;96.20
3648;DHT22;1840;48.892;15.312;2023-11-18T10:02:48;1.90;96.00
3648;DHT22;1840;48.892;15.312;2023-11-18T10:05:20;1.90;96.00
3648;DHT22;1840;48.892;15.312;2023-11-18T10:07:49;1.90;95.80
3648;DHT22;1840;48.892;15.312;2023-11-18T10:10:18;2.00;96.00
3648;DHT22;1840;48.892;15.312;2023-11-18T10:12:49;2.00;96.00
3648;DHT22;1840;48.892;15.312;2023-11-18T10:15:21;2.30;96.00
3648;DHT22;1840;48.892;15.312;2023-11-18T10:17:51;2.50;95.60
3648;DHT22;1840;48.892;15.312;2023-11-18T10:20:43;2.40;95.80
3648;DHT22;1840;48.892;15.312;2023-11-18T10:23:13;2.40;95.40
3648;DHT22;1840;48.892;15.312;2023-11-18T10:25:46;2.40;95.70
3648;DHT22;1840;48.892;15.312;2023-11-18T10:28:24;2.40;95.40
3648;DHT22;1840;48.892;15.312;2023-11-18T10:30:56;2.40;95.70
3648;DHT22;1840;48.892;15.312;2023-11-18T10:33:25;2.30;95.50
3648;DHT22;1840;48.892;15.312;2023-11-18T10:35:59;2.40;95.90
3648;DHT22;1840;48.892;15.312;2023-11-18T10:38:30;2.40;95.50
3648;DHT22;1840;48.892;15.312;2023-11-18T10:40:59;2.30;95.30
3648;DHT22;1840;48.892;15.312;2023-11-18T10:43:28;2.30;95.70
3648;DHT22;1840;48.892;15.312;2023-11-18T10:46:15;2.50;95.50
3648;DHT22;1840;48.892;15.312;2023-11-18T10:48:44;2.40;95.60
3648;DHT22;1840;48.892;15.312;2023-11-18T10:51:17;2.60;95.50
3648;DHT22;1840;48.892;15.312;2023-11-18T10:53:47;2.60;95.20
3648;DHT22;1840;48.892;15.312;2023-11-18T10:56:26;2.50;95.40
3648;DHT22;1840;48.892;15.312;2023-11-18T10:58:56;2.80;95.50
3648;DHT22;1840;48.892;15.312;2023-11-18T11:01:28;2.70;95.00
3648;DHT22;1840;48.892;15.312;2023-11-18T11:04:02;2.50;94.90
3648;DHT22;1840;48.892;15.312;2023-11-18T11:06:33;2.40;95.40
3648;DHT22;1840;48.892;15.312;2023-11-18T11:09:02;2.50;95.40
3648;DHT22;1840;48.892;15.312;2023-11-18T11:11:41;2.60;95.10
3648;DHT22;1840;48.892;15.312;2023-11-18T11:14:14;2.50;95.20
3648;DHT22;1840;48.892;15.312;2023-11-18T11:16:52;2.70;95.10
3648;DHT22;1840;48.892;15.312;2023-11-18T11:19:24;2.50;94.80
3648;DHT22;1840;48.892;15.312;2023-11-18T11:22:05;2.50;94.70
3648;DHT22;1840;48.892;15.312;2023-11-18T11:24:56;2.50;94.90
3648;DHT22;1840;48.892;15.312;2023-11-18T11:27:31;2.50;94.90
3648;DHT22;1840;48.892;15.312;2023-11-18T11:30:13;2.40;95.00
3648;DHT22;1840;48.892;15.312;2023-11-18T11:32:48;2.60;95.10
3648;DHT22;1840;48.892;15.312;2023-11-18T11:35:23;2.60;94.90
3648;DHT22;1840;48.892;15.312;2023-11-18T11:37:53;2.60;94.80
3648;DHT22;1840;48.892;15.312;2023-11-18T11:40:24;2.50;95.00
3648;DHT22;1840;48.892;15.312;2023-11-18T11:42:59;2.30;94.80
3648;DHT22;1840;48.892;15.312;2023-11-18T11:45:34;2.20;95.30
3648;DHT22;1840;48.892;15.312;2023-11-18T11:48:06;2.50;95.30
3648;DHT22;1840;48.892;15.312;2023-11-18T11:51:03;2.40;95.10
3648;DHT22;1840;48.892;15.312;2023-11-18T11:53:47;2.20;95.10
3648;DHT22;1840;48.892;15.312;2023-11-18T11:56:15;2.30;95.20
3648;DHT22;1840;48.892;15.312;2023-11-18T11:58:48;2.50;95.20
3648;DHT22;1840;48.892;15.312;2023-11-18T12:01:25;2.30;95.10
3648;DHT22;1840;48.892;15.312;2023-11-18T12:04:02;2.20;95.00
3648;DHT22;1840;48.892;15.312;2023-11-18T12:06:41;2.10;95.00
3648;DHT22;1840;48.892;15.312;2023-11-18T12:09:13;2.30;95.10
3648;DHT22;1840;48.892;15.312;2023-11-18T12:11:47;2.20;94.90
3648;DHT22;1840;48.892;15.312;2023-11-18T12:14:17;2.20;94.40
3648;DHT22;1840;48.892;15.312;2023-11-18T12:17:05;2.30;94.50
3648;DHT22;1840;48.892;15.312;2023-11-18T12:19:45;2.20;94.60
3648;DHT22;1840;48.892;15.312;2023-11-18T12:22:16;2.30;94.60
3648;DHT22;1840;48.892;15.312;2023-11-18T12:28:10;2.40;93.80
3648;DHT22;1840;48.892;15.312;2023-11-18T12:30:42;2.40;93.60
3648;DHT22;1840;48.892;15.312;2023-11-18T12:33:23;2.40;93.50
3648;DHT22;1840;48.892;15.312;2023-11-18T12:39:31;2.50;93.50
3648;DHT22;1840;48.892;15.312;2023-11-18T12:42:08;2.40;93.40
3648;DHT22;1840;48.892;15.312;2023-11-18T12:45:02;2.40;93.30
3648;DHT22;1840;48.892;15.312;2023-11-18T12:47:42;2.30;93.20
3648;DHT22;1840;48.892;15.312;2023-11-18T12:50:12;2.30;93.30
3648;DHT22;1840;48.892;15.312;2023-11-18T12:52:53;2.40;93.10
3648;DHT22;1840;48.892;15.312;2023-11-18T12:55:21;2.30;92.70
3648;DHT22;1840;48.892;15.312;2023-11-18T12:57:49;2.00;92.50
3648;DHT22;1840;48.892;15.312;2023-11-18T13:00:18;2.00;92.70
3648;DHT22;1840;48.892;15.312;2023-11-18T13:02:53;2.20;92.90
3648;DHT22;1840;48.892;15.312;2023-11-18T13:05:22;2.20;92.50
3648;DHT22;1840;48.892;15.312;2023-11-18T13:07:56;2.10;92.70
3648;DHT22;1840;48.892;15.312;2023-11-18T13:10:26;2.00;92.20
3648;DHT22;1840;48.892;15.312;2023-11-18T13:12:54;2.00;92.50
3648;DHT22;1840;48.892;15.312;2023-11-18T13:15:25;2.40;92.20
3648;DHT22;1840;48.892;15.312;2023-11-18T13:18:00;2.40;91.80
3648;DHT22;1840;48.892;15.312;2023-11-18T13:20:28;2.40;91.90
3648;DHT22;1840;48.892;15.312;2023-11-18T13:23:00;2.50;92.00
3648;DHT22;1840;48.892;15.312;2023-11-18T13:25:35;2.70;92.00
3648;DHT22;1840;48.892;15.312;2023-11-18T13:28:08;2.70;91.60
3648;DHT22;1840;48.892;15.312;2023-11-18T13:30:37;2.80;92.00
3648;DHT22;1840;48.892;15.312;2023-11-18T13:33:07;2.80;91.70
3648;DHT22;1840;48.892;15.312;2023-11-18T13:35:35;2.60;91.60
3648;DHT22;1840;48.892;15.312;2023-11-18T13:38:05;2.60;91.70
3648;DHT22;1840;48.892;15.312;2023-11-18T13:40:44;2.80;91.60
3648;DHT22;1840;48.892;15.312;2023-11-18T13:43:13;2.90;91.80
3648;DHT22;1840;48.892;15.312;2023-11-18T13:45:41;3.10;91.90
3648;DHT22;1840;48.892;15.312;2023-11-18T13:48:11;3.00;91.30
3648;DHT22;1840;48.892;15.312;2023-11-18T13:50:40;3.10;90.90
3648;DHT22;1840;48.892;15.312;2023-11-18T13:53:11;3.10;90.70
3648;DHT22;1840;48.892;15.312;2023-11-18T13:55:40;2.80;90.70
3648;DHT22;1840;48.892;15.312;2023-11-18T13:58:08;2.70;90.60
3648;DHT22;1840;48.892;15.312;2023-11-18T14:00:38;2.70;90.50
3648;DHT22;1840;48.892;15.312;2023-11-18T14:03:08;2.60;90.50
3648;DHT22;1840;48.892;15.312;2023-11-18T14:05:39;2.60;90.70
3648;DHT22;1840;48.892;15.312;2023-11-18T14:08:07;2.60;90.40
3648;DHT22;1840;48.892;15.312;2023-11-18T14:10:38;2.50;90.20
3648;DHT22;1840;48.892;15.312;2023-11-18T14:13:08;2.50;90.30
3648;DHT22;1840;48.892;15.312;2023-11-18T14:15:39;2.60;90.40
3648;DHT22;1840;48.892;15.312;2023-11-18T14:18:11;2.80;90.30
3648;DHT22;1840;48.892;15.312;2023-11-18T14:20:40;2.70;90.00
3648;DHT22;1840;48.892;15.312;2023-11-18T14:23:08;2.70;90.20
3648;DHT22;1840;48.892;15.312;2023-11-18T14:25:38;2.60;90.00
3648;DHT22;1840;48.892;15.312;2023-11-18T14:28:07;2.40;90.00
3648;DHT22;1840;48.892;15.312;2023-11-18T14:30:36;2.40;90.00
3648;DHT22;1840;48.892;15.312;2023-11-18T14:33:04;2.60;89.90
3648;DHT22;1840;48.892;15.312;2023-11-18T14:35:33;2.70;89.90
3648;DHT22;1840;48.892;15.312;2023-11-18T14:38:02;2.50;88.90
3648;DHT22;1840;48.892;15.312;2023-11-18T14:40:30;2.40;88.50
3648;DHT22;1840;48.892;15.312;2023-11-18T14:43:00;2.30;88.50
3648;DHT22;1840;48.892;15.312;2023-11-18T14:45:29;2.30;88.80
3648;DHT22;1840;48.892;15.312;2023-11-18T14:47:57;2.20;89.40
3648;DHT22;1840;48.892;15.312;2023-11-18T14:50:25;2.40;89.20
3648;DHT22;1840;48.892;15.312;2023-11-18T14:52:54;2.40;89.00
3648;DHT22;1840;48.892;15.312;2023-11-18T14:55:27;2.60;89.60
3648;DHT22;1840;48.892;15.312;2023-11-18T14:57:56;2.50;89.30
3648;DHT22;1840;48.892;15.312;2023-11-18T15:00:25;2.60;89.10
3648;DHT22;1840;48.892;15.312;2023-11-18T15:02:55;2.70;88.50
3648;DHT22;1840;48.892;15.312;2023-11-18T15:05:26;2.80;88.60
3648;DHT22;1840;48.892;15.312;2023-11-18T15:07:55;2.80;88.10
3648;DHT22;1840;48.892;15.312;2023-11-18T15:10:26;2.70;88.40
3648;DHT22;1840;48.892;15.312;2023-11-18T15:12:55;2.80;87.90
3648;DHT22;1840;48.892;15.312;2023-11-18T15:15:28;2.70;88.00
3648;DHT22;1840;48.892;15.312;2023-11-18T15:18:01;2.80;88.20
3648;DHT22;1840;48.892;15.312;2023-11-18T15:20:32;2.80;88.30
3648;DHT22;1840;48.892;15.312;2023-11-18T15:23:01;2.80;88.90
3648;DHT22;1840;48.892;15.312;2023-11-18T15:25:31;2.80;88.70
3648;DHT22;1840;48.892;15.312;2023-11-18T15:28:01;2.70;88.80
3648;DHT22;1840;48.892;15.312;2023-11-18T15:30:31;2.70;88.90
3648;DHT22;1840;48.892;15.312;2023-11-18T15:33:00;2.70;89.10
3648;DHT22;1840;48.892;15.312;2023-11-18T15:35:28;2.70;89.30
3648;DHT22;1840;48.892;15.312;2023-11-18T15:37:57;2.70;89.40
3648;DHT22;1840;48.892;15.312;2023-11-18T15:40:25;2.70;89.90
3648;DHT22;1840;48.892;15.312;2023-11-18T15:42:55;2.60;89.50
3648;DHT22;1840;48.892;15.312;2023-11-18T15:45:23;2.60;89.70
3648;DHT22;1840;48.892;15.312;2023-11-18T15:47:55;2.40;90.00
3648;DHT22;1840;48.892;15.312;2023-11-18T15:50:26;2.40;90.10
3648;DHT22;1840;48.892;15.312;2023-11-18T15:52:56;2.30;90.20
3648;DHT22;1840;48.892;15.312;2023-11-18T15:55:24;2.30;90.40
3648;DHT22;1840;48.892;15.312;2023-11-18T15:57:54;2.30;90.40
3648;DHT22;1840;48.892;15.312;2023-11-18T16:00:23;2.20;90.30
3648;DHT22;1840;48.892;15.312;2023-11-18T16:02:56;2.20;90.50
3648;DHT22;1840;48.892;15.312;2023-11-18T16:05:29;2.20;90.90
3648;DHT22;1840;48.892;15.312;2023-11-18T16:08:02;2.20;91.00
3648;DHT22;1840;48.892;15.312;2023-11-18T16:10:32;2.00;91.30
3648;DHT22;1840;48.892;15.312;2023-11-18T16:13:01;2.00;91.20
3648;DHT22;1840;48.892;15.312;2023-11-18T16:15:30;2.00;91.00
3648;DHT22;1840;48.892;15.312;2023-11-18T16:18:00;1.90;91.00
3648;DHT22;1840;48.892;15.312;2023-11-18T16:20:29;1.70;91.50
3648;DHT22;1840;48.892;15.312;2023-11-18T16:23:00;1.60;92.00
3648;DHT22;1840;48.892;15.312;2023-11-18T16:25:30;1.50;92.40
3648;DHT22;1840;48.892;15.312;2023-11-18T16:28:00;1.40;92.40
3648;DHT22;1840;48.892;15.312;2023-11-18T16:30:30;1.20;92.70